createdAt,value
2022-12-15T00:02:09.327Z,67.51
2022-12-15T00:04:58.486Z,67.73
2022-12-15T00:07:47.946Z,67.85
2022-12-15T00:10:43.616Z,67.69
2022-12-15T00:13:33.671Z,67.81
2022-12-15T00:16:23.165Z,67.95
2022-12-15T00:19:12.604Z,67.86
2022-12-15T00:22:01.908Z,67.91
2022-12-15T00:24:51.272Z,67.77
2022-12-15T00:27:40.552Z,67.81
2022-12-15T00:30:35.240Z,67.79
2022-12-15T00:33:29.832Z,68.07
2022-12-15T00:36:20.218Z,68.09
2022-12-15T00:38:52.265Z,67.81
2022-12-15T00:41:23.964Z,67.98
2022-12-15T00:43:55.615Z,68.14
2022-12-15T00:46:45.191Z,68.08
2022-12-15T00:49:30.816Z,67.50
2022-12-15T00:52:20.384Z,67.42
2022-12-15T00:55:11.089Z,67.63
2022-12-15T00:58:00.745Z,67.31
2022-12-15T01:00:50.475Z,67.41
2022-12-15T01:03:42.890Z,67.46
2022-12-15T01:06:34.602Z,67.60
2022-12-15T01:09:26.730Z,67.21
2022-12-15T01:12:16.053Z,66.72
2022-12-15T01:15:05.217Z,66.48
2022-12-15T01:17:54.383Z,66.42
2022-12-15T01:20:27.816Z,66.14
2022-12-15T01:22:59.505Z,66.17
2022-12-15T01:25:31.469Z,65.95
2022-12-15T01:28:03.126Z,65.37
2022-12-15T01:30:37.810Z,65.43
2022-12-15T01:33:09.440Z,65.75
2022-12-15T01:35:41.578Z,65.87
2022-12-15T01:38:13.525Z,65.82
2022-12-15T01:40:54.328Z,65.80
2022-12-15T01:43:29.070Z,65.52
2022-12-15T01:46:09.926Z,65.45
2022-12-15T01:48:48.572Z,65.06
2022-12-15T01:51:27.939Z,65.15
2022-12-15T01:54:03.588Z,64.91
2022-12-15T01:56:39.927Z,64.86
2022-12-15T01:59:15.722Z,65.13
2022-12-15T02:01:50.074Z,65.02
2022-12-15T02:04:24.849Z,65.30
2022-12-15T02:06:57.453Z,65.09
2022-12-15T02:09:29.714Z,65.02
2022-12-15T02:12:08.192Z,64.84
2022-12-15T02:14:51.816Z,64.85
2022-12-15T02:17:36.455Z,64.90
2022-12-15T02:20:41.500Z,64.58
2022-12-15T02:23:33.706Z,64.46
2022-12-15T02:26:32.175Z,64.91
2022-12-15T02:29:19.367Z,64.90
2022-12-15T02:31:57.184Z,64.97
2022-12-15T02:34:35.882Z,64.88
2022-12-15T02:37:11.543Z,64.80
2022-12-15T02:39:43.224Z,64.65
2022-12-15T02:42:15.362Z,64.62
2022-12-15T02:44:50.478Z,64.56
2022-12-15T02:47:30.820Z,64.40
2022-12-15T02:50:43.428Z,64.50
2022-12-15T02:53:34.728Z,64.75
2022-12-15T02:56:13.371Z,64.37
2022-12-15T02:58:54.935Z,64.38
2022-12-15T03:01:32.570Z,64.58
2022-12-15T03:04:06.365Z,64.31
2022-12-15T03:06:38.395Z,64.08
2022-12-15T03:09:10.004Z,64.11
2022-12-15T03:11:41.716Z,63.76
2022-12-15T03:14:13.374Z,63.77
2022-12-15T03:16:45.044Z,63.58
2022-12-15T03:19:16.652Z,63.63
2022-12-15T03:21:48.317Z,63.67
2022-12-15T03:24:20.282Z,63.72
2022-12-15T03:26:52.126Z,63.83
2022-12-15T03:29:24.001Z,63.84
2022-12-15T03:31:55.994Z,64.00
2022-12-15T03:34:27.877Z,63.98
2022-12-15T03:37:01.194Z,63.55
2022-12-15T03:39:32.871Z,63.97
2022-12-15T03:42:04.703Z,63.82
2022-12-15T03:44:36.340Z,63.59
2022-12-15T03:47:08.084Z,63.62
2022-12-15T03:49:39.661Z,63.57
2022-12-15T03:52:11.277Z,63.57
2022-12-15T03:54:42.983Z,63.50
2022-12-15T03:57:14.740Z,63.30
2022-12-15T03:59:46.369Z,63.38
2022-12-15T04:02:18.253Z,63.22
2022-12-15T04:04:50.137Z,63.40
2022-12-15T04:07:22.001Z,63.25
2022-12-15T04:09:53.668Z,62.96
2022-12-15T04:12:25.275Z,63.11
2022-12-15T04:14:57.066Z,63.23
2022-12-15T04:17:28.924Z,63.11
2022-12-15T04:20:12.706Z,63.01
2022-12-15T04:22:46.130Z,63.07
2022-12-15T04:25:37.842Z,63.22
2022-12-15T04:28:29.734Z,63.06
2022-12-15T04:31:21.247Z,63.02
2022-12-15T04:34:13.612Z,62.68
2022-12-15T04:37:05.850Z,62.90
2022-12-15T04:39:57.116Z,62.83
2022-12-15T04:42:45.337Z,63.00
2022-12-15T04:45:36.185Z,62.75
2022-12-15T04:48:27.209Z,62.63
2022-12-15T04:51:16.525Z,62.52
2022-12-15T04:54:05.764Z,62.52
2022-12-15T04:56:55.113Z,62.39
2022-12-15T04:59:44.569Z,62.56
2022-12-15T05:02:33.793Z,62.67
2022-12-15T05:05:23.980Z,62.38
2022-12-15T05:08:17.862Z,62.51
2022-12-15T05:11:07.280Z,62.46
2022-12-15T05:13:56.651Z,62.59
2022-12-15T05:16:46.010Z,62.47
2022-12-15T05:19:34.913Z,62.64
2022-12-15T05:22:24.136Z,62.25
2022-12-15T05:25:13.254Z,62.44
2022-12-15T05:28:02.427Z,62.27
2022-12-15T05:30:51.705Z,62.35
2022-12-15T05:33:23.406Z,62.62
2022-12-15T05:35:56.868Z,62.76
2022-12-15T05:38:28.560Z,62.68
2022-12-15T05:41:01.459Z,62.91
2022-12-15T05:43:33.617Z,62.77
2022-12-15T05:46:07.021Z,62.76
2022-12-15T05:48:38.745Z,62.80
2022-12-15T05:51:12.324Z,62.53
2022-12-15T05:53:44.593Z,62.92
2022-12-15T05:56:16.987Z,63.35
2022-12-15T05:58:48.570Z,63.54
2022-12-15T06:01:21.112Z,63.70
2022-12-15T06:03:52.862Z,63.60
2022-12-15T06:06:24.646Z,63.43
2022-12-15T06:09:17.560Z,63.30
2022-12-15T06:11:49.758Z,63.53
2022-12-15T06:14:21.635Z,63.38
2022-12-15T06:16:53.375Z,63.56
2022-12-15T06:19:26.193Z,63.55
2022-12-15T06:21:59.299Z,63.76
2022-12-15T06:24:31.255Z,63.77
2022-12-15T06:27:05.946Z,63.62
2022-12-15T06:29:45.235Z,63.47
2022-12-15T06:32:17.039Z,63.46
2022-12-15T06:34:48.800Z,63.80
2022-12-15T06:37:20.681Z,63.72
2022-12-15T06:39:52.414Z,63.65
2022-12-15T06:42:24.426Z,63.50
2022-12-15T06:44:57.155Z,63.77
2022-12-15T06:47:29.017Z,63.83
2022-12-15T06:50:00.991Z,63.88
2022-12-15T06:52:33.056Z,63.87
2022-12-15T06:55:05.194Z,63.82
2022-12-15T06:57:39.032Z,63.83
2022-12-15T07:00:15.461Z,63.88
2022-12-15T07:02:49.860Z,63.91
2022-12-15T07:05:22.270Z,63.83
2022-12-15T07:07:54.494Z,64.00
2022-12-15T07:10:26.221Z,63.96
2022-12-15T07:12:59.433Z,64.03
2022-12-15T07:15:31.037Z,64.07
2022-12-15T07:18:03.095Z,63.96
2022-12-15T07:20:35.125Z,64.03
2022-12-15T07:23:10.092Z,63.99
2022-12-15T07:25:42.347Z,64.36
2022-12-15T07:28:14.085Z,64.66
2022-12-15T07:30:45.777Z,64.45
2022-12-15T07:33:17.445Z,64.64
2022-12-15T07:35:56.491Z,64.65
2022-12-15T07:38:29.236Z,64.71
2022-12-15T07:41:04.866Z,64.75
2022-12-15T07:43:37.420Z,64.68
2022-12-15T07:46:09.834Z,64.65
2022-12-15T07:49:36.153Z,64.53
2022-12-15T07:52:14.645Z,64.67
2022-12-15T07:54:46.483Z,64.56
2022-12-15T07:57:18.141Z,64.50
2022-12-15T07:59:49.765Z,64.61
2022-12-15T08:02:21.962Z,64.46
2022-12-15T08:04:53.865Z,64.56
2022-12-15T08:07:25.467Z,64.58
2022-12-15T08:09:57.279Z,64.65
2022-12-15T08:12:29.486Z,64.62
2022-12-15T08:15:01.192Z,64.73
2022-12-15T08:17:33.095Z,64.79
2022-12-15T08:20:14.291Z,64.91
2022-12-15T08:22:45.942Z,65.11
2022-12-15T08:25:17.728Z,65.02
2022-12-15T08:27:51.044Z,65.00
2022-12-15T08:30:28.719Z,64.98
2022-12-15T08:33:00.686Z,64.94
2022-12-15T08:35:55.630Z,65.10
2022-12-15T08:38:24.152Z,64.94
2022-12-15T08:40:55.967Z,64.80
2022-12-15T08:43:27.704Z,64.78
2022-12-15T08:46:00.632Z,64.88
2022-12-15T08:48:32.793Z,64.93
2022-12-15T08:51:05.110Z,64.99
2022-12-15T08:53:36.942Z,64.95
2022-12-15T08:56:10.362Z,65.02
2022-12-15T08:58:42.268Z,65.13
2022-12-15T09:01:22.513Z,65.17
2022-12-15T09:03:56.101Z,65.06
2022-12-15T09:06:30.301Z,65.21
2022-12-15T09:09:05.131Z,65.26
2022-12-15T09:11:37.216Z,65.24
2022-12-15T09:14:09.322Z,65.31
2022-12-15T09:16:41.152Z,65.16
2022-12-15T09:19:13.012Z,65.36
2022-12-15T09:21:45.128Z,65.30
2022-12-15T09:24:26.081Z,65.30
2022-12-15T09:27:04.793Z,65.31
2022-12-15T09:29:36.852Z,65.26
2022-12-15T09:32:56.301Z,65.33
2022-12-15T09:35:29.154Z,65.47
2022-12-15T09:38:01.178Z,65.49
2022-12-15T09:40:33.467Z,65.43
2022-12-15T09:43:33.291Z,65.34
2022-12-15T09:46:04.520Z,65.55
2022-12-15T09:48:55.715Z,65.59
2022-12-15T09:51:49.622Z,65.63
2022-12-15T09:54:24.206Z,65.73
2022-12-15T09:57:02.570Z,65.70
2022-12-15T09:59:40.727Z,65.80
2022-12-15T10:02:51.037Z,65.79
2022-12-15T10:06:06.995Z,65.93
2022-12-15T10:08:30.398Z,66.01
2022-12-15T10:11:06.099Z,65.84
2022-12-15T10:13:43.760Z,65.91
2022-12-15T10:16:42.124Z,65.76
2022-12-15T10:19:20.198Z,65.66
2022-12-15T10:21:52.231Z,65.71
2022-12-15T10:25:07.357Z,65.78
2022-12-15T10:27:42.565Z,65.67
2022-12-15T10:30:18.350Z,65.91
2022-12-15T10:32:58.958Z,65.83
2022-12-15T10:35:33.897Z,65.79
2022-12-15T10:38:11.544Z,65.73
2022-12-15T10:41:14.344Z,65.38
2022-12-15T10:43:47.566Z,65.60
2022-12-15T10:46:24.900Z,65.86
2022-12-15T10:49:00.727Z,65.95
2022-12-15T10:51:33.800Z,65.76
2022-12-15T10:54:14.671Z,65.91
2022-12-15T10:56:51.938Z,65.77
2022-12-15T10:59:34.878Z,65.95
2022-12-15T11:02:27.597Z,65.87
2022-12-15T11:05:01.809Z,65.80
2022-12-15T11:07:39.496Z,66.00
2022-12-15T11:10:28.409Z,66.07
2022-12-15T11:13:11.550Z,66.01
2022-12-15T11:15:47.166Z,66.10
2022-12-15T11:18:31.816Z,66.11
2022-12-15T11:21:26.205Z,66.18
2022-12-15T11:24:15.781Z,66.20
2022-12-15T11:26:54.156Z,66.14
2022-12-15T11:29:34.730Z,66.10
2022-12-15T11:32:07.633Z,66.28
2022-12-15T11:34:43.819Z,66.16
2022-12-15T11:37:37.086Z,66.09
2022-12-15T11:40:29.736Z,66.23
2022-12-15T11:43:38.531Z,66.34
2022-12-15T11:46:20.782Z,66.49
2022-12-15T11:49:20.625Z,66.54
2022-12-15T11:52:02.774Z,66.60
2022-12-15T11:54:43.383Z,66.30
2022-12-15T11:57:34.176Z,66.29
2022-12-15T12:00:13.941Z,66.34
2022-12-15T12:03:00.639Z,66.43
2022-12-15T12:05:45.793Z,66.36
2022-12-15T12:08:31.436Z,66.60
2022-12-15T12:11:12.849Z,66.67
2022-12-15T12:13:57.314Z,66.70
2022-12-15T12:16:40.014Z,66.74
2022-12-15T12:19:17.916Z,66.28
2022-12-15T12:21:51.839Z,66.43
2022-12-15T12:24:27.837Z,66.59
2022-12-15T12:27:04.748Z,66.42
2022-12-15T12:29:39.838Z,66.53
2022-12-15T12:32:17.087Z,66.59
2022-12-15T12:35:31.249Z,66.49
2022-12-15T12:38:01.359Z,66.51
2022-12-15T12:40:58.711Z,66.64
2022-12-15T12:43:36.870Z,66.32
2022-12-15T12:46:16.250Z,66.67
2022-12-15T12:48:56.194Z,66.69
2022-12-15T12:51:32.595Z,66.45
2022-12-15T12:54:25.098Z,66.59
2022-12-15T12:58:02.333Z,66.56
2022-12-15T13:01:18.789Z,66.66
2022-12-15T13:04:09.151Z,66.74
2022-12-15T13:07:12.776Z,66.65
2022-12-15T13:09:47.674Z,66.56
2022-12-15T13:12:52.937Z,66.49
2022-12-15T13:15:43.496Z,66.51
2022-12-15T13:18:19.642Z,66.49
2022-12-15T13:20:55.391Z,66.40
2022-12-15T13:23:47.114Z,66.52
2022-12-15T13:26:22.281Z,66.40
2022-12-15T13:28:57.827Z,66.43
2022-12-15T13:31:33.374Z,66.43
2022-12-15T13:34:15.285Z,66.49
2022-12-15T13:36:55.096Z,66.49
2022-12-15T13:39:57.652Z,66.50
2022-12-15T13:42:52.973Z,66.52
2022-12-15T13:45:50.897Z,66.72
2022-12-15T13:48:38.567Z,66.62
2022-12-15T13:51:23.945Z,66.90
2022-12-15T13:54:00.428Z,66.70
2022-12-15T13:56:45.921Z,66.33
2022-12-15T13:59:27.291Z,66.57
2022-12-15T14:01:59.347Z,66.49
2022-12-15T14:04:30.991Z,66.43
2022-12-15T14:07:04.226Z,66.39
2022-12-15T14:09:42.098Z,66.49
2022-12-15T14:12:16.053Z,66.35
2022-12-15T14:14:50.390Z,66.54
2022-12-15T14:17:22.251Z,66.81
2022-12-15T14:19:54.113Z,66.68
2022-12-15T14:22:29.703Z,66.36
2022-12-15T14:25:14.614Z,66.56
2022-12-15T14:27:50.690Z,66.53
2022-12-15T14:30:39.455Z,66.42
2022-12-15T14:33:17.223Z,66.31
2022-12-15T14:35:51.194Z,66.41
2022-12-15T14:38:26.816Z,66.38
2022-12-15T14:41:01.603Z,66.33
2022-12-15T14:43:37.688Z,66.42
2022-12-15T14:46:12.767Z,66.60
2022-12-15T14:48:52.317Z,66.65
2022-12-15T14:51:25.156Z,66.63
2022-12-15T14:53:57.389Z,66.51
2022-12-15T14:56:31.537Z,66.65
2022-12-15T14:59:06.023Z,66.73
2022-12-15T15:01:42.470Z,66.62
2022-12-15T15:04:29.301Z,66.66
2022-12-15T15:07:03.923Z,66.81
2022-12-15T15:09:40.244Z,66.72
2022-12-15T15:12:18.265Z,66.78
2022-12-15T15:14:52.911Z,66.76
2022-12-15T15:17:35.652Z,66.54
2022-12-15T15:20:25.774Z,66.62
2022-12-15T15:23:16.805Z,66.72
2022-12-15T15:25:54.453Z,66.80
2022-12-15T15:28:28.481Z,66.73
2022-12-15T15:31:05.896Z,66.59
2022-12-15T15:33:39.531Z,66.69
2022-12-15T15:36:14.123Z,66.69
2022-12-15T15:38:47.736Z,66.86
2022-12-15T15:41:29.558Z,66.83
2022-12-15T15:44:03.044Z,66.83
2022-12-15T15:46:37.011Z,66.85
2022-12-15T15:49:15.113Z,66.89
2022-12-15T15:51:46.846Z,67.00
2022-12-15T15:54:22.365Z,66.92
2022-12-15T15:56:54.099Z,67.03
2022-12-15T15:59:29.112Z,66.93
2022-12-15T16:02:02.381Z,66.94
2022-12-15T16:04:36.374Z,66.72
2022-12-15T16:07:08.711Z,66.97
2022-12-15T16:09:40.566Z,66.87
2022-12-15T16:12:27.762Z,66.88
2022-12-15T16:14:59.512Z,66.83
2022-12-15T16:17:31.171Z,67.00
2022-12-15T16:20:02.878Z,67.13
2022-12-15T16:22:34.543Z,67.06
2022-12-15T16:25:14.096Z,67.16
2022-12-15T16:27:45.863Z,67.21
2022-12-15T16:30:33.843Z,67.21
2022-12-15T16:33:05.547Z,67.04
2022-12-15T16:35:37.908Z,67.04
2022-12-15T16:38:16.952Z,66.97
2022-12-15T16:40:48.674Z,67.24
2022-12-15T16:43:22.027Z,67.30
2022-12-15T16:45:56.028Z,67.24
2022-12-15T16:48:28.306Z,67.27
2022-12-15T16:51:00.865Z,67.26
2022-12-15T16:53:35.535Z,67.19
2022-12-15T16:56:09.431Z,67.23
2022-12-15T16:58:41.095Z,67.30
2022-12-15T17:01:15.961Z,67.25
2022-12-15T17:03:47.855Z,67.24
2022-12-15T17:06:19.825Z,67.18
2022-12-15T17:08:55.233Z,67.12
2022-12-15T17:11:29.070Z,67.17
2022-12-15T17:14:02.055Z,67.21
2022-12-15T17:16:34.082Z,67.29
2022-12-15T17:19:05.877Z,67.14
2022-12-15T17:21:44.666Z,67.23
2022-12-15T17:24:20.163Z,67.29
2022-12-15T17:26:52.444Z,67.26
2022-12-15T17:29:26.347Z,67.42
2022-12-15T17:31:58.004Z,67.17
2022-12-15T17:34:31.610Z,67.18
2022-12-15T17:37:05.817Z,67.18
2022-12-15T17:39:38.096Z,67.18
2022-12-15T17:42:17.419Z,67.20
2022-12-15T17:44:51.798Z,67.16
2022-12-15T17:47:24.832Z,66.91
2022-12-15T17:49:56.532Z,67.19
2022-12-15T17:52:31.511Z,67.32
2022-12-15T17:55:04.586Z,67.28
2022-12-15T17:57:36.129Z,67.36
2022-12-15T18:03:18.117Z,67.23
2022-12-15T18:05:51.667Z,67.21
2022-12-15T18:08:25.758Z,67.40
2022-12-15T18:10:59.299Z,67.45
2022-12-15T18:13:35.570Z,67.52
2022-12-15T18:16:08.263Z,67.73
2022-12-15T18:18:39.891Z,67.74
2022-12-15T18:21:16.479Z,67.64
2022-12-15T18:23:48.508Z,67.58
2022-12-15T18:26:21.122Z,67.65
2022-12-15T18:28:52.716Z,67.66
2022-12-15T18:31:26.938Z,67.59
2022-12-15T18:34:04.510Z,67.59
2022-12-15T18:36:37.094Z,67.63
2022-12-15T18:39:20.286Z,67.62
2022-12-15T18:41:54.778Z,67.79
2022-12-15T18:44:28.425Z,68.10
2022-12-15T18:47:00.207Z,68.43
2022-12-15T18:49:31.895Z,68.36
2022-12-15T18:52:03.569Z,68.30
2022-12-15T18:54:35.336Z,68.25
2022-12-15T18:57:22.283Z,68.29
2022-12-15T18:59:54.646Z,68.19
2022-12-15T19:02:26.484Z,68.30
2022-12-15T19:04:58.286Z,68.04
2022-12-15T19:07:30.316Z,68.02
2022-12-15T19:10:02.214Z,67.89
2022-12-15T19:12:33.843Z,68.04
2022-12-15T19:15:07.497Z,67.84
2022-12-15T19:17:56.569Z,67.88
2022-12-15T19:20:45.559Z,67.82
2022-12-15T19:23:18.147Z,67.88
2022-12-15T19:25:50.486Z,67.72
2022-12-15T19:28:24.326Z,67.56
2022-12-15T19:30:56.107Z,67.58
2022-12-15T19:33:28.090Z,67.27
2022-12-15T19:36:00.025Z,67.22
2022-12-15T19:38:34.254Z,67.14
2022-12-15T19:41:06.340Z,67.42
2022-12-15T19:43:38.274Z,67.77
2022-12-15T19:46:17.070Z,67.93
2022-12-15T19:48:49.498Z,68.14
2022-12-15T19:51:23.246Z,67.85
2022-12-15T19:53:56.631Z,67.75
2022-12-15T19:56:29.216Z,67.74
2022-12-15T19:59:00.894Z,67.71
2022-12-15T20:01:32.800Z,67.94
2022-12-15T20:04:04.729Z,68.14
2022-12-15T20:06:37.322Z,68.10
2022-12-15T20:09:15.750Z,67.98
2022-12-15T20:11:47.831Z,67.85
2022-12-15T20:14:19.952Z,67.69
2022-12-15T20:16:51.953Z,67.50
2022-12-15T20:19:23.820Z,67.39
2022-12-15T20:21:56.425Z,67.51
2022-12-15T20:24:29.205Z,67.73
2022-12-15T20:27:01.476Z,68.06
2022-12-15T20:29:34.163Z,68.23
2022-12-15T20:32:16.884Z,68.50
2022-12-15T20:34:49.389Z,68.27
2022-12-15T20:37:26.368Z,68.08
2022-12-15T20:39:58.122Z,67.65
2022-12-15T20:42:29.777Z,67.74
2022-12-15T20:45:01.512Z,67.68
2022-12-15T20:47:33.131Z,67.93
2022-12-15T20:50:17.455Z,67.92
2022-12-15T20:52:57.304Z,67.54
2022-12-15T20:55:29.327Z,67.38
2022-12-15T20:58:00.966Z,67.31
2022-12-15T21:00:41.528Z,67.40
2022-12-15T21:03:23.891Z,67.55
2022-12-15T21:05:58.250Z,67.78
2022-12-15T21:08:31.533Z,67.51
2022-12-15T21:11:11.810Z,67.52
2022-12-15T21:13:43.802Z,67.41
2022-12-15T21:16:20.687Z,67.63
2022-12-15T21:21:48.315Z,67.39
2022-12-15T21:24:23.393Z,67.81
2022-12-15T21:26:55.170Z,68.02
2022-12-15T21:29:29.096Z,68.11
2022-12-15T21:32:00.894Z,68.24
2022-12-15T21:34:32.763Z,68.27
2022-12-15T21:37:05.574Z,68.82
2022-12-15T21:39:38.485Z,69.35
2022-12-15T21:42:16.114Z,69.20
2022-12-15T21:44:48.113Z,69.62
2022-12-15T21:47:47.770Z,69.57
2022-12-15T21:50:27.586Z,69.79
2022-12-15T21:53:00.083Z,69.94
2022-12-15T21:55:32.509Z,69.09
2022-12-15T21:58:04.262Z,69.38
2022-12-15T22:00:38.697Z,69.52
2022-12-15T22:03:13.278Z,69.80
2022-12-15T22:05:45.218Z,69.45
2022-12-15T22:08:19.350Z,69.99
2022-12-15T22:10:52.993Z,70.52
2022-12-15T22:13:26.517Z,71.14
2022-12-15T22:15:58.121Z,71.34
2022-12-15T22:18:31.086Z,71.17
2022-12-15T22:21:03.071Z,71.35
2022-12-15T22:23:34.939Z,70.79
2022-12-15T22:26:06.659Z,70.42
2022-12-15T22:28:39.125Z,71.19
2022-12-15T22:31:12.878Z,71.30
2022-12-15T22:33:44.754Z,71.21
2022-12-15T22:36:16.395Z,71.56
2022-12-15T22:38:48.626Z,71.46
2022-12-15T22:41:23.308Z,71.29
2022-12-15T22:43:57.463Z,70.88
2022-12-15T22:46:29.152Z,71.00
2022-12-15T22:49:02.749Z,70.93
2022-12-15T22:51:35.171Z,70.73
2022-12-15T22:54:18.016Z,70.62
2022-12-15T22:56:54.202Z,70.29
2022-12-15T22:59:32.779Z,70.34
2022-12-15T23:02:05.291Z,70.15
2022-12-15T23:04:37.181Z,69.94
2022-12-15T23:07:11.223Z,69.70
2022-12-15T23:09:42.934Z,69.68
2022-12-15T23:12:14.609Z,69.43
2022-12-15T23:15:03.746Z,69.32
2022-12-15T23:17:35.462Z,69.17
2022-12-15T23:20:15.395Z,68.97
2022-12-15T23:22:47.248Z,68.88
2022-12-15T23:25:19.200Z,68.61
2022-12-15T23:27:51.659Z,68.64
2022-12-15T23:30:30.878Z,68.61
2022-12-15T23:33:02.924Z,68.08
2022-12-15T23:35:34.769Z,68.29
2022-12-15T23:38:06.346Z,68.28
2022-12-15T23:40:38.110Z,68.10
2022-12-15T23:43:09.753Z,68.37
2022-12-15T23:45:42.279Z,68.54
2022-12-15T23:48:15.311Z,68.59
2022-12-15T23:50:46.920Z,68.40
2022-12-15T23:53:18.682Z,68.23
2022-12-15T23:55:50.289Z,68.07
2022-12-15T23:58:23.312Z,68.08
